• Join FlightAware (Why Join?)
  • Login
  • US Flag 
12:15AM EDT


 

Airport Tracker/Info


-or-


 

Live Flight TrackerFlight Track Log ✈ JBU56 ✈ 21-Jul-2013 ✈ KIAD - KBOS

Flight Track Log - Related Links

Times and Time Zones

All times are in EDT time to prevent confusion due to time zone crossing. See the JBU56 flight status page for this flight to view local times or setup timezone preferences in your user account.

Time Position Orientation Groundspeed Altitude Reporting Facility
EDT Latitude Longitude Course Direction KTS MPH feet Rate Location/Type
09:08AM 38.9833 -77.5000 46° Northeast 177 204 2,000  Level Potomac TRACON
09:09AM 39.0333 -77.5167 345° North 223 257 4,900 2,760 Climbing Potomac TRACON
09:10AM 39.3154 -75.6943 41° Northeast  Level FlightAware Approximate
09:10AM 39.1000 -77.5333 349° North 240 276 7,300  Level Potomac TRACON
09:11AM 39.3678 -75.6344 41° Northeast  Level FlightAware Approximate
09:11AM 39.1667 -77.5000 21° North 297 342 9,800  Level Potomac TRACON
09:12AM 39.4176 -75.5710 46° Northeast  Level FlightAware Approximate
09:12AM 39.1472 -77.3097 97° East 349 402 10,000  Level Washington Center
09:13AM 39.4663 -75.5061 46° Northeast  Level FlightAware Approximate
09:13AM 39.1133 -77.1833 109° East 344 396 12,600  Level Washington Center
09:14AM 39.0836 -77.0622 108° East 349 402 15,100 2,340 Climbing Washington Center
09:15AM 39.0539 -76.9308 106° East 363 418 17,400 1,860 Climbing Washington Center
09:16AM 39.0219 -76.7992 107° East 375 432 19,000 1,020 Climbing Washington Center
09:17AM 39.0022 -76.6681 101° East 375 432 19,500 900 Climbing Washington Center
09:18AM 39.0556 -76.5353 63° Northeast 379 436 20,800 1,500 Climbing Washington Center
09:19AM 39.1314 -76.4103 52° Northeast 404 465 22,500 1,620 Climbing Washington Center
09:20AM 39.2072 -76.2800 53° Northeast 426 490 24,100 1,380 Climbing Washington Center
09:21AM 39.2872 -76.1494 52° Northeast 447 514 25,400 1,320 Climbing Washington Center
09:22AM 39.3628 -76.0131 54° Northeast 459 528 26,800 1,260 Climbing Washington Center
09:23AM 39.4383 -75.8736 55° Northeast 459 528 27,900 1,200 Climbing Washington Center
09:24AM 39.5197 -75.7314 53° Northeast 472 543 29,300 1,080 Climbing Washington Center
09:26AM 39.6586 -75.4872 53° Northeast 483 556 31,000 600 Climbing New York Center
09:27AM 39.7394 -75.3414 54° Northeast 483 556 31,000  Level New York Center
09:28AM 39.8219 -75.1981 53° Northeast 488 562 31,000  Level New York Center
09:29AM 39.8917 -75.0644 56° Northeast 495 570 31,000  Level New York Center
09:30AM 39.9778 -74.9289 50° Northeast 490 564 31,000  Level New York Center
09:31AM 40.0642 -74.7822 52° Northeast 497 572 31,000  Level New York Center
09:32AM 40.1481 -74.6431 52° Northeast 497 572 31,000  Level New York Center
09:33AM 40.2339 -74.5011 52° Northeast 497 572 31,000  Level New York Center
09:34AM 40.3194 -74.3589 52° Northeast 497 572 31,000  Level New York Center
09:35AM 40.4053 -74.2133 52° Northeast 497 572 31,000 -60 Level New York Center
09:37AM 40.6244 -73.8483 52° Northeast 488 562 30,800 -900 Descending Boston Center
09:38AM 40.7094 -73.6994 53° Northeast 511 588 28,100 -2,520 Descending Boston Center
09:39AM 40.7839 -73.5639 54° Northeast 511 588 25,800 -2,100 Descending Boston Center
09:40AM 40.8642 -73.4308 51° Northeast 484 557 24,000 -1,080 Descending Boston Center
09:41AM 40.9528 -73.3003 48° Northeast 471 542 23,700 -540 Descending Boston Center
09:42AM 41.0372 -73.1747 48° Northeast 459 528 23,000 -360 Descending Boston Center
09:43AM 41.1233 -73.0464 48° Northeast 459 528 23,000  Level Boston Center
09:44AM 41.1950 -72.9008 57° Northeast 464 534 23,000  Level Boston Center
09:45AM 41.2517 -72.7467 64° Northeast 464 534 23,000  Level Boston Center
09:46AM 41.3186 -72.5672 64° Northeast 479 551 23,000  Level Boston Center
09:47AM 41.3667 -72.4261 66° East 479 551 23,000  Level Boston Center
09:48AM 41.4292 -72.2600 63° Northeast 473 544 23,000 -960 Level Boston Center
09:49AM 41.4869 -72.1019 64° Northeast 458 527 21,100 -1,800 Descending Boston Center
09:50AM 41.5181 -72.0131 65° Northeast 452 520 19,500 -2,520 Descending Boston Center
09:51AM 41.5919 -71.8044 65° Northeast 440 506 16,100 -2,700 Descending Boston Center
09:52AM 41.6350 -71.6817 65° Northeast 416 479 14,100 -2,100 Descending Boston Center
09:53AM 41.6861 -71.5367 65° Northeast 399 459 11,900 -1,560 Descending Boston Center
09:54AM 41.7167 -71.4528 64° Northeast 369 425 11,000 -480 Descending Boston Center
09:55AM 41.7778 -71.3128 60° Northeast 342 394 11,000  Level Boston Center
09:56AM 41.8503 -71.2528 32° Northeast 299 344 11,000 -720 Level Boston Center
09:59AM 42.0500 -71.1500 21° North 255 293 8,600 -1,260 Descending KA90
10:00AM 42.1167 -71.1333 11° North 242 278 6,500 -2,100 Descending KA90
10:01AM 42.1667 -71.1000 26° Northeast 227 261 4,500 -1,500 Descending KA90
10:02AM 42.2167 -71.0667 26° Northeast 183 211 3,700 -1,380 Descending KA90
10:03AM 42.2667 -71.0500 14° North 171 197 1,900 -1,320 Descending KA90
10:04AM 42.3000 -71.0333 20° North 141 162 1,000 -780 Descending KA90
10:05AM 42.3333 -71.0167 20° North 136 157 300 -720 Descending KA90
10:07AM 42.3500 -71.0000 North  Level FlightAware Approximate